sensor_id;sensor_type;location;lat;lon;timestamp;P1;durP1;ratioP1;P2;durP2;ratioP2
70967;SDS011;58629;48.808;8.820;2023-07-24T00:00:14;3.87;;;2.60;;
70967;SDS011;58629;48.808;8.820;2023-07-24T00:02:40;4.60;;;2.87;;
70967;SDS011;58629;48.808;8.820;2023-07-24T00:05:05;10.17;;;4.47;;
70967;SDS011;58629;48.808;8.820;2023-07-24T00:07:31;3.85;;;2.35;;
70967;SDS011;58629;48.808;8.820;2023-07-24T00:09:56;3.47;;;2.50;;
70967;SDS011;58629;48.808;8.820;2023-07-24T00:12:22;3.90;;;2.30;;
70967;SDS011;58629;48.808;8.820;2023-07-24T00:14:47;4.10;;;2.30;;
70967;SDS011;58629;48.808;8.820;2023-07-24T00:17:13;3.50;;;2.30;;
70967;SDS011;58629;48.808;8.820;2023-07-24T00:19:38;4.63;;;2.80;;
70967;SDS011;58629;48.808;8.820;2023-07-24T00:22:03;3.20;;;2.10;;
70967;SDS011;58629;48.808;8.820;2023-07-24T00:24:29;3.27;;;2.20;;
70967;SDS011;58629;48.808;8.820;2023-07-24T00:26:56;3.22;;;1.98;;
70967;SDS011;58629;48.808;8.820;2023-07-24T00:29:21;5.17;;;2.90;;
70967;SDS011;58629;48.808;8.820;2023-07-24T00:31:47;4.28;;;2.50;;
70967;SDS011;58629;48.808;8.820;2023-07-24T00:34:12;4.40;;;2.45;;
70967;SDS011;58629;48.808;8.820;2023-07-24T00:36:37;5.43;;;2.77;;
70967;SDS011;58629;48.808;8.820;2023-07-24T00:39:03;4.73;;;2.80;;
70967;SDS011;58629;48.808;8.820;2023-07-24T00:41:28;4.43;;;2.70;;
70967;SDS011;58629;48.808;8.820;2023-07-24T00:43:54;3.60;;;2.40;;
70967;SDS011;58629;48.808;8.820;2023-07-24T00:46:19;4.25;;;2.38;;
70967;SDS011;58629;48.808;8.820;2023-07-24T00:48:44;4.60;;;2.80;;
70967;SDS011;58629;48.808;8.820;2023-07-24T00:51:10;3.73;;;2.33;;
70967;SDS011;58629;48.808;8.820;2023-07-24T00:53:35;3.90;;;2.22;;
70967;SDS011;58629;48.808;8.820;2023-07-24T00:56:01;3.63;;;2.20;;
70967;SDS011;58629;48.808;8.820;2023-07-24T00:58:26;3.10;;;1.93;;
70967;SDS011;58629;48.808;8.820;2023-07-24T01:00:53;3.58;;;2.17;;
70967;SDS011;58629;48.808;8.820;2023-07-24T01:03:18;7.33;;;3.30;;
70967;SDS011;58629;48.808;8.820;2023-07-24T01:05:43;7.53;;;3.90;;
70967;SDS011;58629;48.808;8.820;2023-07-24T01:08:09;5.53;;;2.90;;
70967;SDS011;58629;48.808;8.820;2023-07-24T01:10:34;5.32;;;3.33;;
70967;SDS011;58629;48.808;8.820;2023-07-24T01:13:07;5.63;;;3.17;;
70967;SDS011;58629;48.808;8.820;2023-07-24T01:15:38;5.70;;;3.25;;
70967;SDS011;58629;48.808;8.820;2023-07-24T01:18:10;5.13;;;3.03;;
70967;SDS011;58629;48.808;8.820;2023-07-24T01:20:40;6.93;;;3.42;;
70967;SDS011;58629;48.808;8.820;2023-07-24T01:28:18;4.72;;;2.55;;
70967;SDS011;58629;48.808;8.820;2023-07-24T01:30:44;4.60;;;3.00;;
70967;SDS011;58629;48.808;8.820;2023-07-24T01:33:09;3.87;;;2.23;;
70967;SDS011;58629;48.808;8.820;2023-07-24T01:35:34;4.93;;;2.90;;
70967;SDS011;58629;48.808;8.820;2023-07-24T01:38:01;6.57;;;4.10;;
70967;SDS011;58629;48.808;8.820;2023-07-24T01:40:28;4.30;;;2.58;;
70967;SDS011;58629;48.808;8.820;2023-07-24T01:42:54;5.90;;;3.13;;
70967;SDS011;58629;48.808;8.820;2023-07-24T01:45:19;5.63;;;2.88;;
70967;SDS011;58629;48.808;8.820;2023-07-24T01:47:45;3.55;;;2.42;;
70967;SDS011;58629;48.808;8.820;2023-07-24T01:50:10;3.60;;;2.13;;
70967;SDS011;58629;48.808;8.820;2023-07-24T01:52:36;3.63;;;2.33;;
70967;SDS011;58629;48.808;8.820;2023-07-24T01:55:01;4.40;;;2.53;;
70967;SDS011;58629;48.808;8.820;2023-07-24T01:57:26;3.63;;;2.13;;
70967;SDS011;58629;48.808;8.820;2023-07-24T01:59:51;3.17;;;2.00;;
70967;SDS011;58629;48.808;8.820;2023-07-24T02:02:17;3.43;;;2.03;;
70967;SDS011;58629;48.808;8.820;2023-07-24T02:04:42;3.20;;;1.73;;
70967;SDS011;58629;48.808;8.820;2023-07-24T02:07:08;2.90;;;1.80;;
70967;SDS011;58629;48.808;8.820;2023-07-24T02:09:33;3.17;;;1.90;;
70967;SDS011;58629;48.808;8.820;2023-07-24T02:11:59;3.47;;;1.98;;
70967;SDS011;58629;48.808;8.820;2023-07-24T02:14:24;2.87;;;1.83;;
70967;SDS011;58629;48.808;8.820;2023-07-24T02:16:51;2.33;;;1.60;;
70967;SDS011;58629;48.808;8.820;2023-07-24T02:19:17;3.27;;;2.30;;
70967;SDS011;58629;48.808;8.820;2023-07-24T02:21:42;3.27;;;2.30;;
70967;SDS011;58629;48.808;8.820;2023-07-24T02:24:07;3.70;;;2.23;;
70967;SDS011;58629;48.808;8.820;2023-07-24T02:26:32;3.40;;;2.10;;
70967;SDS011;58629;48.808;8.820;2023-07-24T02:28:58;3.47;;;2.23;;
70967;SDS011;58629;48.808;8.820;2023-07-24T02:31:23;3.03;;;1.70;;
70967;SDS011;58629;48.808;8.820;2023-07-24T02:33:48;2.80;;;1.70;;
70967;SDS011;58629;48.808;8.820;2023-07-24T02:36:14;2.70;;;1.80;;
70967;SDS011;58629;48.808;8.820;2023-07-24T02:38:40;3.60;;;2.10;;
70967;SDS011;58629;48.808;8.820;2023-07-24T02:41:05;2.97;;;1.97;;
70967;SDS011;58629;48.808;8.820;2023-07-24T02:43:30;2.70;;;1.70;;
70967;SDS011;58629;48.808;8.820;2023-07-24T02:45:59;3.40;;;2.03;;
70967;SDS011;58629;48.808;8.820;2023-07-24T02:48:26;4.75;;;3.08;;
70967;SDS011;58629;48.808;8.820;2023-07-24T02:50:51;6.33;;;3.57;;
70967;SDS011;58629;48.808;8.820;2023-07-24T02:53:17;5.30;;;3.27;;
70967;SDS011;58629;48.808;8.820;2023-07-24T02:55:42;5.13;;;3.17;;
70967;SDS011;58629;48.808;8.820;2023-07-24T02:58:08;4.63;;;2.87;;
70967;SDS011;58629;48.808;8.820;2023-07-24T03:00:34;4.43;;;2.90;;
70967;SDS011;58629;48.808;8.820;2023-07-24T03:02:59;8.23;;;4.07;;
70967;SDS011;58629;48.808;8.820;2023-07-24T03:05:24;11.07;;;4.80;;
70967;SDS011;58629;48.808;8.820;2023-07-24T03:07:49;8.10;;;4.70;;
70967;SDS011;58629;48.808;8.820;2023-07-24T03:10:15;6.67;;;3.57;;
70967;SDS011;58629;48.808;8.820;2023-07-24T03:12:40;7.07;;;3.90;;
70967;SDS011;58629;48.808;8.820;2023-07-24T03:15:06;10.73;;;4.50;;
70967;SDS011;58629;48.808;8.820;2023-07-24T03:17:32;9.32;;;4.10;;
70967;SDS011;58629;48.808;8.820;2023-07-24T03:19:57;5.67;;;3.60;;
70967;SDS011;58629;48.808;8.820;2023-07-24T03:22:23;5.30;;;3.30;;
70967;SDS011;58629;48.808;8.820;2023-07-24T03:24:48;4.93;;;3.00;;
70967;SDS011;58629;48.808;8.820;2023-07-24T03:27:13;4.30;;;2.60;;
70967;SDS011;58629;48.808;8.820;2023-07-24T03:29:38;4.18;;;2.60;;
70967;SDS011;58629;48.808;8.820;2023-07-24T03:32:06;4.30;;;2.88;;
70967;SDS011;58629;48.808;8.820;2023-07-24T03:34:31;3.97;;;2.30;;
70967;SDS011;58629;48.808;8.820;2023-07-24T03:36:57;3.93;;;2.27;;
70967;SDS011;58629;48.808;8.820;2023-07-24T03:39:22;3.60;;;2.20;;
70967;SDS011;58629;48.808;8.820;2023-07-24T03:41:47;3.40;;;2.37;;
70967;SDS011;58629;48.808;8.820;2023-07-24T03:44:13;6.83;;;3.70;;
70967;SDS011;58629;48.808;8.820;2023-07-24T03:46:38;5.13;;;3.22;;
70967;SDS011;58629;48.808;8.820;2023-07-24T03:49:03;13.23;;;4.50;;
70967;SDS011;58629;48.808;8.820;2023-07-24T03:51:29;6.57;;;3.37;;
70967;SDS011;58629;48.808;8.820;2023-07-24T03:53:54;6.27;;;3.20;;
70967;SDS011;58629;48.808;8.820;2023-07-24T03:56:19;6.73;;;3.20;;
70967;SDS011;58629;48.808;8.820;2023-07-24T03:58:45;5.93;;;3.47;;
70967;SDS011;58629;48.808;8.820;2023-07-24T04:01:10;5.30;;;2.95;;
70967;SDS011;58629;48.808;8.820;2023-07-24T04:03:35;4.40;;;2.70;;
70967;SDS011;58629;48.808;8.820;2023-07-24T04:06:01;4.73;;;2.90;;
70967;SDS011;58629;48.808;8.820;2023-07-24T04:08:26;5.03;;;3.13;;
70967;SDS011;58629;48.808;8.820;2023-07-24T04:10:52;5.43;;;3.20;;
70967;SDS011;58629;48.808;8.820;2023-07-24T04:13:17;5.30;;;3.30;;
70967;SDS011;58629;48.808;8.820;2023-07-24T04:15:43;4.27;;;3.03;;
70967;SDS011;58629;48.808;8.820;2023-07-24T04:18:09;4.85;;;2.92;;
70967;SDS011;58629;48.808;8.820;2023-07-24T04:20:34;18.50;;;5.87;;
70967;SDS011;58629;48.808;8.820;2023-07-24T04:23:00;8.67;;;4.00;;
70967;SDS011;58629;48.808;8.820;2023-07-24T04:25:25;8.13;;;3.97;;
70967;SDS011;58629;48.808;8.820;2023-07-24T04:27:50;5.27;;;3.17;;
70967;SDS011;58629;48.808;8.820;2023-07-24T04:30:16;6.17;;;3.70;;
70967;SDS011;58629;48.808;8.820;2023-07-24T04:32:41;5.35;;;3.30;;
70967;SDS011;58629;48.808;8.820;2023-07-24T04:35:07;5.05;;;3.10;;
70967;SDS011;58629;48.808;8.820;2023-07-24T04:37:32;4.18;;;2.80;;
70967;SDS011;58629;48.808;8.820;2023-07-24T04:39:58;4.45;;;2.67;;
70967;SDS011;58629;48.808;8.820;2023-07-24T04:42:23;4.67;;;2.80;;
70967;SDS011;58629;48.808;8.820;2023-07-24T04:44:48;3.97;;;2.60;;
70967;SDS011;58629;48.808;8.820;2023-07-24T04:47:15;5.10;;;2.75;;
70967;SDS011;58629;48.808;8.820;2023-07-24T04:49:40;3.70;;;2.00;;
70967;SDS011;58629;48.808;8.820;2023-07-24T04:52:05;4.53;;;2.67;;
70967;SDS011;58629;48.808;8.820;2023-07-24T04:54:31;3.77;;;2.50;;
70967;SDS011;58629;48.808;8.820;2023-07-24T04:56:56;8.67;;;4.47;;
70967;SDS011;58629;48.808;8.820;2023-07-24T04:59:21;5.10;;;2.90;;
70967;SDS011;58629;48.808;8.820;2023-07-24T05:01:47;6.17;;;3.30;;
70967;SDS011;58629;48.808;8.820;2023-07-24T05:04:12;4.20;;;2.80;;
70967;SDS011;58629;48.808;8.820;2023-07-24T05:06:37;4.73;;;2.90;;
70967;SDS011;58629;48.808;8.820;2023-07-24T05:09:03;3.92;;;2.58;;
70967;SDS011;58629;48.808;8.820;2023-07-24T05:11:29;4.77;;;2.70;;
70967;SDS011;58629;48.808;8.820;2023-07-24T05:13:54;4.60;;;2.92;;
70967;SDS011;58629;48.808;8.820;2023-07-24T05:16:19;5.10;;;2.97;;
70967;SDS011;58629;48.808;8.820;2023-07-24T05:18:44;4.50;;;2.87;;
70967;SDS011;58629;48.808;8.820;2023-07-24T05:21:10;4.33;;;2.70;;
70967;SDS011;58629;48.808;8.820;2023-07-24T05:23:36;5.00;;;2.80;;
70967;SDS011;58629;48.808;8.820;2023-07-24T05:26:01;4.15;;;2.30;;
70967;SDS011;58629;48.808;8.820;2023-07-24T05:28:28;4.77;;;3.00;;
70967;SDS011;58629;48.808;8.820;2023-07-24T05:30:54;5.35;;;3.30;;
70967;SDS011;58629;48.808;8.820;2023-07-24T05:33:20;7.50;;;3.93;;
70967;SDS011;58629;48.808;8.820;2023-07-24T05:35:48;7.07;;;4.03;;
70967;SDS011;58629;48.808;8.820;2023-07-24T05:38:13;6.88;;;4.18;;
70967;SDS011;58629;48.808;8.820;2023-07-24T05:40:38;6.47;;;3.90;;
70967;SDS011;58629;48.808;8.820;2023-07-24T05:43:04;8.20;;;4.27;;
70967;SDS011;58629;48.808;8.820;2023-07-24T05:45:29;5.97;;;3.90;;
70967;SDS011;58629;48.808;8.820;2023-07-24T05:47:54;6.67;;;3.93;;
70967;SDS011;58629;48.808;8.820;2023-07-24T05:50:20;5.68;;;3.50;;
70967;SDS011;58629;48.808;8.820;2023-07-24T05:52:45;5.57;;;3.40;;
70967;SDS011;58629;48.808;8.820;2023-07-24T05:55:10;7.43;;;4.00;;
70967;SDS011;58629;48.808;8.820;2023-07-24T05:57:36;8.23;;;4.90;;
70967;SDS011;58629;48.808;8.820;2023-07-24T06:00:04;7.77;;;4.17;;
70967;SDS011;58629;48.808;8.820;2023-07-24T06:02:30;8.52;;;4.28;;
70967;SDS011;58629;48.808;8.820;2023-07-24T06:04:56;7.35;;;4.60;;
70967;SDS011;58629;48.808;8.820;2023-07-24T06:07:21;7.10;;;3.92;;
70967;SDS011;58629;48.808;8.820;2023-07-24T06:09:47;7.73;;;4.47;;
70967;SDS011;58629;48.808;8.820;2023-07-24T06:12:12;7.03;;;4.40;;
70967;SDS011;58629;48.808;8.820;2023-07-24T06:14:38;8.13;;;4.70;;
70967;SDS011;58629;48.808;8.820;2023-07-24T06:17:04;8.10;;;4.67;;
70967;SDS011;58629;48.808;8.820;2023-07-24T06:19:29;7.30;;;4.47;;
70967;SDS011;58629;48.808;8.820;2023-07-24T06:21:54;8.23;;;4.50;;
70967;SDS011;58629;48.808;8.820;2023-07-24T06:24:20;9.23;;;4.10;;
70967;SDS011;58629;48.808;8.820;2023-07-24T06:26:45;7.78;;;4.43;;
70967;SDS011;58629;48.808;8.820;2023-07-24T06:29:11;8.73;;;4.70;;
70967;SDS011;58629;48.808;8.820;2023-07-24T06:31:36;6.63;;;4.20;;
70967;SDS011;58629;48.808;8.820;2023-07-24T06:34:02;7.25;;;4.18;;
70967;SDS011;58629;48.808;8.820;2023-07-24T06:36:27;6.80;;;4.10;;
70967;SDS011;58629;48.808;8.820;2023-07-24T06:38:53;6.00;;;3.73;;
70967;SDS011;58629;48.808;8.820;2023-07-24T06:41:18;5.63;;;3.83;;
70967;SDS011;58629;48.808;8.820;2023-07-24T06:43:45;5.40;;;3.70;;
70967;SDS011;58629;48.808;8.820;2023-07-24T06:46:10;6.57;;;3.83;;
70967;SDS011;58629;48.808;8.820;2023-07-24T06:48:36;6.47;;;4.20;;
70967;SDS011;58629;48.808;8.820;2023-07-24T06:51:01;6.53;;;4.22;;
70967;SDS011;58629;48.808;8.820;2023-07-24T06:53:26;6.97;;;3.90;;
70967;SDS011;58629;48.808;8.820;2023-07-24T06:55:52;5.80;;;3.87;;
70967;SDS011;58629;48.808;8.820;2023-07-24T06:58:17;6.13;;;4.00;;
70967;SDS011;58629;48.808;8.820;2023-07-24T07:00:42;7.87;;;4.23;;
70967;SDS011;58629;48.808;8.820;2023-07-24T07:03:07;6.83;;;4.47;;
70967;SDS011;58629;48.808;8.820;2023-07-24T07:05:33;6.43;;;4.10;;
70967;SDS011;58629;48.808;8.820;2023-07-24T07:07:58;5.77;;;4.03;;
70967;SDS011;58629;48.808;8.820;2023-07-24T07:10:23;6.53;;;4.03;;
70967;SDS011;58629;48.808;8.820;2023-07-24T07:12:49;5.97;;;3.90;;
70967;SDS011;58629;48.808;8.820;2023-07-24T07:15:14;6.87;;;4.20;;
70967;SDS011;58629;48.808;8.820;2023-07-24T07:17:40;5.40;;;3.63;;
70967;SDS011;58629;48.808;8.820;2023-07-24T07:20:05;5.03;;;3.40;;
70967;SDS011;58629;48.808;8.820;2023-07-24T07:22:31;5.78;;;3.90;;
70967;SDS011;58629;48.808;8.820;2023-07-24T07:24:56;5.80;;;3.80;;
70967;SDS011;58629;48.808;8.820;2023-07-24T07:27:22;5.63;;;3.37;;
70967;SDS011;58629;48.808;8.820;2023-07-24T07:29:47;5.00;;;3.50;;
70967;SDS011;58629;48.808;8.820;2023-07-24T07:32:12;5.20;;;3.20;;
70967;SDS011;58629;48.808;8.820;2023-07-24T07:34:38;4.90;;;3.60;;
70967;SDS011;58629;48.808;8.820;2023-07-24T07:37:04;5.05;;;3.55;;
70967;SDS011;58629;48.808;8.820;2023-07-24T07:39:30;5.93;;;3.72;;
70967;SDS011;58629;48.808;8.820;2023-07-24T07:41:55;5.60;;;3.47;;
70967;SDS011;58629;48.808;8.820;2023-07-24T07:44:21;4.90;;;3.40;;
70967;SDS011;58629;48.808;8.820;2023-07-24T07:46:46;6.73;;;4.30;;
70967;SDS011;58629;48.808;8.820;2023-07-24T07:49:11;5.10;;;3.43;;
70967;SDS011;58629;48.808;8.820;2023-07-24T07:51:36;6.32;;;3.78;;
70967;SDS011;58629;48.808;8.820;2023-07-24T07:54:02;7.13;;;4.72;;
70967;SDS011;58629;48.808;8.820;2023-07-24T07:56:27;7.53;;;4.60;;
70967;SDS011;58629;48.808;8.820;2023-07-24T07:58:53;6.77;;;4.37;;
70967;SDS011;58629;48.808;8.820;2023-07-24T08:01:19;6.00;;;4.13;;
70967;SDS011;58629;48.808;8.820;2023-07-24T08:03:44;8.33;;;5.20;;
70967;SDS011;58629;48.808;8.820;2023-07-24T08:06:10;7.53;;;4.90;;
70967;SDS011;58629;48.808;8.820;2023-07-24T08:08:35;8.25;;;4.95;;
70967;SDS011;58629;48.808;8.820;2023-07-24T08:11:06;6.47;;;4.50;;
70967;SDS011;58629;48.808;8.820;2023-07-24T08:13:32;8.43;;;5.23;;
70967;SDS011;58629;48.808;8.820;2023-07-24T08:15:58;7.72;;;5.30;;
70967;SDS011;58629;48.808;8.820;2023-07-24T08:18:28;7.53;;;4.75;;
70967;SDS011;58629;48.808;8.820;2023-07-24T08:20:54;7.20;;;4.80;;
70967;SDS011;58629;48.808;8.820;2023-07-24T08:23:19;6.70;;;4.80;;
70967;SDS011;58629;48.808;8.820;2023-07-24T08:25:54;6.97;;;4.67;;
70967;SDS011;58629;48.808;8.820;2023-07-24T08:28:20;7.07;;;4.57;;
70967;SDS011;58629;48.808;8.820;2023-07-24T08:30:46;5.70;;;4.05;;
70967;SDS011;58629;48.808;8.820;2023-07-24T08:33:12;7.17;;;4.40;;
70967;SDS011;58629;48.808;8.820;2023-07-24T08:35:37;5.95;;;4.03;;
70967;SDS011;58629;48.808;8.820;2023-07-24T08:38:03;5.30;;;3.87;;
70967;SDS011;58629;48.808;8.820;2023-07-24T08:40:28;6.13;;;4.23;;
70967;SDS011;58629;48.808;8.820;2023-07-24T08:42:54;6.37;;;4.30;;
70967;SDS011;58629;48.808;8.820;2023-07-24T08:45:20;6.35;;;4.43;;
70967;SDS011;58629;48.808;8.820;2023-07-24T08:47:46;7.32;;;4.40;;
70967;SDS011;58629;48.808;8.820;2023-07-24T08:50:12;6.78;;;4.20;;
70967;SDS011;58629;48.808;8.820;2023-07-24T08:52:40;7.50;;;5.22;;
70967;SDS011;58629;48.808;8.820;2023-07-24T08:55:07;7.03;;;4.53;;
70967;SDS011;58629;48.808;8.820;2023-07-24T08:57:33;6.65;;;4.45;;
70967;SDS011;58629;48.808;8.820;2023-07-24T08:59:59;6.55;;;4.75;;
70967;SDS011;58629;48.808;8.820;2023-07-24T09:02:29;7.22;;;4.88;;
70967;SDS011;58629;48.808;8.820;2023-07-24T09:04:55;8.02;;;5.05;;
70967;SDS011;58629;48.808;8.820;2023-07-24T09:07:20;8.02;;;5.18;;
70967;SDS011;58629;48.808;8.820;2023-07-24T09:09:46;9.17;;;5.47;;
70967;SDS011;58629;48.808;8.820;2023-07-24T09:12:15;8.85;;;5.30;;
70967;SDS011;58629;48.808;8.820;2023-07-24T09:14:40;7.38;;;4.90;;
70967;SDS011;58629;48.808;8.820;2023-07-24T09:17:06;7.63;;;5.10;;
70967;SDS011;58629;48.808;8.820;2023-07-24T09:19:35;7.68;;;4.63;;
70967;SDS011;58629;48.808;8.820;2023-07-24T09:22:11;7.15;;;4.93;;
70967;SDS011;58629;48.808;8.820;2023-07-24T09:24:48;6.75;;;4.55;;
70967;SDS011;58629;48.808;8.820;2023-07-24T09:27:17;6.97;;;4.50;;
70967;SDS011;58629;48.808;8.820;2023-07-24T09:29:43;7.33;;;4.23;;
70967;SDS011;58629;48.808;8.820;2023-07-24T09:32:19;5.32;;;4.30;;
70967;SDS011;58629;48.808;8.820;2023-07-24T09:34:49;9.88;;;4.93;;
70967;SDS011;58629;48.808;8.820;2023-07-24T09:37:29;7.43;;;4.72;;
70967;SDS011;58629;48.808;8.820;2023-07-24T09:39:56;6.90;;;4.80;;
70967;SDS011;58629;48.808;8.820;2023-07-24T09:42:31;6.15;;;4.63;;
70967;SDS011;58629;48.808;8.820;2023-07-24T09:44:57;5.90;;;4.40;;
70967;SDS011;58629;48.808;8.820;2023-07-24T09:47:23;7.60;;;4.60;;
70967;SDS011;58629;48.808;8.820;2023-07-24T09:49:48;5.23;;;3.83;;
70967;SDS011;58629;48.808;8.820;2023-07-24T09:52:14;4.80;;;3.75;;
70967;SDS011;58629;48.808;8.820;2023-07-24T09:54:46;5.18;;;3.70;;
70967;SDS011;58629;48.808;8.820;2023-07-24T09:57:19;6.30;;;4.60;;
70967;SDS011;58629;48.808;8.820;2023-07-24T09:59:45;5.50;;;4.18;;
70967;SDS011;58629;48.808;8.820;2023-07-24T10:02:12;6.07;;;3.80;;
70967;SDS011;58629;48.808;8.820;2023-07-24T10:04:38;6.32;;;4.13;;
70967;SDS011;58629;48.808;8.820;2023-07-24T10:07:05;7.05;;;4.20;;
70967;SDS011;58629;48.808;8.820;2023-07-24T10:09:32;6.20;;;4.32;;
70967;SDS011;58629;48.808;8.820;2023-07-24T10:11:58;5.65;;;4.20;;
70967;SDS011;58629;48.808;8.820;2023-07-24T10:14:25;5.87;;;4.03;;
70967;SDS011;58629;48.808;8.820;2023-07-24T10:16:51;8.15;;;5.05;;
70967;SDS011;58629;48.808;8.820;2023-07-24T10:19:20;6.97;;;4.80;;
70967;SDS011;58629;48.808;8.820;2023-07-24T10:21:46;6.63;;;4.15;;
70967;SDS011;58629;48.808;8.820;2023-07-24T10:24:13;6.10;;;4.25;;
70967;SDS011;58629;48.808;8.820;2023-07-24T10:26:42;6.80;;;4.07;;
70967;SDS011;58629;48.808;8.820;2023-07-24T10:29:08;6.68;;;4.25;;
70967;SDS011;58629;48.808;8.820;2023-07-24T10:31:34;4.72;;;3.55;;
70967;SDS011;58629;48.808;8.820;2023-07-24T10:34:04;5.97;;;3.55;;
70967;SDS011;58629;48.808;8.820;2023-07-24T10:36:33;4.97;;;3.60;;
70967;SDS011;58629;48.808;8.820;2023-07-24T10:38:59;4.50;;;3.30;;
70967;SDS011;58629;48.808;8.820;2023-07-24T10:41:36;5.40;;;3.83;;
70967;SDS011;58629;48.808;8.820;2023-07-24T10:44:02;7.63;;;4.80;;
70967;SDS011;58629;48.808;8.820;2023-07-24T10:46:35;7.87;;;4.90;;
70967;SDS011;58629;48.808;8.820;2023-07-24T10:49:02;6.18;;;4.30;;
70967;SDS011;58629;48.808;8.820;2023-07-24T10:51:29;6.15;;;4.05;;
70967;SDS011;58629;48.808;8.820;2023-07-24T10:53:54;6.05;;;4.15;;
70967;SDS011;58629;48.808;8.820;2023-07-24T10:56:20;7.47;;;4.70;;
70967;SDS011;58629;48.808;8.820;2023-07-24T10:58:45;8.10;;;4.60;;
70967;SDS011;58629;48.808;8.820;2023-07-24T11:01:10;6.67;;;4.13;;
70967;SDS011;58629;48.808;8.820;2023-07-24T11:03:36;7.53;;;4.30;;
70967;SDS011;58629;48.808;8.820;2023-07-24T11:06:03;7.53;;;4.55;;
70967;SDS011;58629;48.808;8.820;2023-07-24T11:08:29;7.07;;;5.03;;
70967;SDS011;58629;48.808;8.820;2023-07-24T11:10:56;7.72;;;4.70;;
70967;SDS011;58629;48.808;8.820;2023-07-24T11:13:26;6.75;;;4.53;;
70967;SDS011;58629;48.808;8.820;2023-07-24T11:15:53;8.33;;;4.47;;
70967;SDS011;58629;48.808;8.820;2023-07-24T11:18:19;5.72;;;4.20;;
70967;SDS011;58629;48.808;8.820;2023-07-24T11:20:50;5.57;;;4.10;;
70967;SDS011;58629;48.808;8.820;2023-07-24T11:23:19;6.45;;;4.18;;
70967;SDS011;58629;48.808;8.820;2023-07-24T11:25:45;5.67;;;3.97;;
70967;SDS011;58629;48.808;8.820;2023-07-24T11:28:12;5.63;;;3.80;;
70967;SDS011;58629;48.808;8.820;2023-07-24T11:30:38;5.45;;;3.28;;
70967;SDS011;58629;48.808;8.820;2023-07-24T11:33:08;5.57;;;4.00;;
70967;SDS011;58629;48.808;8.820;2023-07-24T11:35:36;5.47;;;3.90;;
70967;SDS011;58629;48.808;8.820;2023-07-24T11:38:03;5.03;;;3.60;;
70967;SDS011;58629;48.808;8.820;2023-07-24T11:40:36;6.23;;;4.30;;
70967;SDS011;58629;48.808;8.820;2023-07-24T11:43:14;5.72;;;4.10;;
70967;SDS011;58629;48.808;8.820;2023-07-24T11:45:43;5.20;;;3.65;;
70967;SDS011;58629;48.808;8.820;2023-07-24T11:48:10;6.10;;;3.95;;
70967;SDS011;58629;48.808;8.820;2023-07-24T11:50:43;8.33;;;4.37;;
70967;SDS011;58629;48.808;8.820;2023-07-24T11:53:28;6.10;;;4.15;;
70967;SDS011;58629;48.808;8.820;2023-07-24T11:55:55;5.72;;;4.20;;
70967;SDS011;58629;48.808;8.820;2023-07-24T11:58:24;6.40;;;4.18;;
70967;SDS011;58629;48.808;8.820;2023-07-24T12:00:50;5.78;;;4.20;;
70967;SDS011;58629;48.808;8.820;2023-07-24T12:03:24;6.13;;;3.87;;
70967;SDS011;58629;48.808;8.820;2023-07-24T12:05:51;6.13;;;3.97;;
70967;SDS011;58629;48.808;8.820;2023-07-24T12:08:19;7.03;;;4.25;;
70967;SDS011;58629;48.808;8.820;2023-07-24T12:10:48;5.28;;;3.47;;
70967;SDS011;58629;48.808;8.820;2023-07-24T12:13:14;5.47;;;3.80;;
70967;SDS011;58629;48.808;8.820;2023-07-24T12:15:39;6.05;;;4.10;;
70967;SDS011;58629;48.808;8.820;2023-07-24T12:18:05;6.03;;;4.10;;
70967;SDS011;58629;48.808;8.820;2023-07-24T12:20:31;5.18;;;3.78;;
70967;SDS011;58629;48.808;8.820;2023-07-24T12:22:56;4.93;;;3.60;;
70967;SDS011;58629;48.808;8.820;2023-07-24T12:25:22;4.90;;;3.60;;
70967;SDS011;58629;48.808;8.820;2023-07-24T12:27:48;5.07;;;3.65;;
70967;SDS011;58629;48.808;8.820;2023-07-24T12:30:13;4.40;;;3.13;;
70967;SDS011;58629;48.808;8.820;2023-07-24T12:32:39;5.15;;;3.50;;
70967;SDS011;58629;48.808;8.820;2023-07-24T12:35:05;4.77;;;3.47;;
70967;SDS011;58629;48.808;8.820;2023-07-24T12:37:30;4.28;;;3.05;;
70967;SDS011;58629;48.808;8.820;2023-07-24T12:39:56;5.30;;;3.50;;
70967;SDS011;58629;48.808;8.820;2023-07-24T12:42:22;5.22;;;4.00;;
70967;SDS011;58629;48.808;8.820;2023-07-24T12:44:48;5.83;;;4.20;;
70967;SDS011;58629;48.808;8.820;2023-07-24T12:47:13;5.20;;;4.30;;
70967;SDS011;58629;48.808;8.820;2023-07-24T12:49:39;6.50;;;4.27;;
70967;SDS011;58629;48.808;8.820;2023-07-24T12:52:04;5.07;;;4.30;;
70967;SDS011;58629;48.808;8.820;2023-07-24T12:54:31;4.80;;;4.00;;
70967;SDS011;58629;48.808;8.820;2023-07-24T12:56:56;4.95;;;3.90;;
70967;SDS011;58629;48.808;8.820;2023-07-24T12:59:22;4.50;;;3.67;;
70967;SDS011;58629;48.808;8.820;2023-07-24T13:01:47;4.60;;;3.80;;
70967;SDS011;58629;48.808;8.820;2023-07-24T13:04:12;4.50;;;3.50;;
70967;SDS011;58629;48.808;8.820;2023-07-24T13:06:38;3.80;;;3.27;;
70967;SDS011;58629;48.808;8.820;2023-07-24T13:09:03;4.60;;;3.53;;
70967;SDS011;58629;48.808;8.820;2023-07-24T13:11:29;3.97;;;3.25;;
70967;SDS011;58629;48.808;8.820;2023-07-24T13:13:55;4.63;;;3.40;;
70967;SDS011;58629;48.808;8.820;2023-07-24T13:16:21;4.97;;;3.55;;
70967;SDS011;58629;48.808;8.820;2023-07-24T13:18:46;5.22;;;3.65;;
70967;SDS011;58629;48.808;8.820;2023-07-24T13:21:12;4.63;;;3.23;;
70967;SDS011;58629;48.808;8.820;2023-07-24T13:23:38;5.00;;;3.53;;
70967;SDS011;58629;48.808;8.820;2023-07-24T13:26:04;4.43;;;3.50;;
70967;SDS011;58629;48.808;8.820;2023-07-24T13:28:29;5.10;;;3.20;;
70967;SDS011;58629;48.808;8.820;2023-07-24T13:30:55;4.90;;;3.70;;
70967;SDS011;58629;48.808;8.820;2023-07-24T13:33:23;5.25;;;3.60;;
70967;SDS011;58629;48.808;8.820;2023-07-24T13:35:48;5.40;;;3.63;;
70967;SDS011;58629;48.808;8.820;2023-07-24T13:38:14;4.95;;;2.97;;
70967;SDS011;58629;48.808;8.820;2023-07-24T13:40:41;4.17;;;3.23;;
70967;SDS011;58629;48.808;8.820;2023-07-24T13:43:06;4.43;;;3.20;;
70967;SDS011;58629;48.808;8.820;2023-07-24T13:45:31;5.13;;;3.77;;
70967;SDS011;58629;48.808;8.820;2023-07-24T13:47:57;4.43;;;3.27;;
70967;SDS011;58629;48.808;8.820;2023-07-24T13:50:23;4.18;;;3.17;;
70967;SDS011;58629;48.808;8.820;2023-07-24T13:52:48;4.20;;;3.20;;
70967;SDS011;58629;48.808;8.820;2023-07-24T13:55:14;4.90;;;3.77;;
70967;SDS011;58629;48.808;8.820;2023-07-24T13:57:40;5.93;;;3.83;;
70967;SDS011;58629;48.808;8.820;2023-07-24T14:00:06;5.13;;;3.77;;
70967;SDS011;58629;48.808;8.820;2023-07-24T14:02:31;5.30;;;3.85;;
70967;SDS011;58629;48.808;8.820;2023-07-24T14:04:56;4.87;;;3.90;;
70967;SDS011;58629;48.808;8.820;2023-07-24T14:07:22;5.30;;;3.90;;
70967;SDS011;58629;48.808;8.820;2023-07-24T14:09:47;5.33;;;3.80;;
70967;SDS011;58629;48.808;8.820;2023-07-24T14:12:13;6.20;;;3.70;;
70967;SDS011;58629;48.808;8.820;2023-07-24T14:14:38;4.47;;;3.40;;
70967;SDS011;58629;48.808;8.820;2023-07-24T14:17:03;5.03;;;3.63;;
70967;SDS011;58629;48.808;8.820;2023-07-24T14:19:29;5.10;;;3.70;;
70967;SDS011;58629;48.808;8.820;2023-07-24T14:21:54;4.32;;;3.40;;
70967;SDS011;58629;48.808;8.820;2023-07-24T14:24:20;5.07;;;3.67;;
70967;SDS011;58629;48.808;8.820;2023-07-24T14:29:13;5.68;;;3.53;;
70967;SDS011;58629;48.808;8.820;2023-07-24T14:31:42;4.05;;;3.00;;
70967;SDS011;58629;48.808;8.820;2023-07-24T14:34:07;4.20;;;3.20;;
70967;SDS011;58629;48.808;8.820;2023-07-24T14:36:35;4.63;;;2.83;;
70967;SDS011;58629;48.808;8.820;2023-07-24T14:39:01;4.63;;;3.00;;
70967;SDS011;58629;48.808;8.820;2023-07-24T14:41:27;5.00;;;3.30;;
70967;SDS011;58629;48.808;8.820;2023-07-24T14:43:52;4.72;;;3.30;;
70967;SDS011;58629;48.808;8.820;2023-07-24T14:46:17;4.00;;;3.10;;
70967;SDS011;58629;48.808;8.820;2023-07-24T14:48:43;4.07;;;2.97;;